Time;durP1;ratioP1;P1;durP2;ratioP2;P2;SDS_P1;SDS_P2;PMS_P1;PMS_P2;Temp;Humidity;BMP_temperature;BMP_pressure;BME280_temperature;BME280_humidity;BME280_pressure;Samples;Min_cycle;Max_cycle;Signal;HPM_P1;HPM_P2
2022/07/09 00:01:33;;;;;;;9.25;5.20;;;16.00;99.90;;;;;;4994461;28;20038;-65
2022/07/09 00:04:02;;;;;;;9.30;4.97;;;16.10;99.90;;;;;;5021292;28;20042;-65
2022/07/09 00:06:28;;;;;;;8.15;5.65;;;15.90;99.90;;;;;;4993470;28;20049;-66
2022/07/09 00:08:54;;;;;;;10.32;5.28;;;15.90;99.90;;;;;;4994285;28;20500;-66
2022/07/09 00:11:19;;;;;;;9.98;6.03;;;16.10;99.90;;;;;;4993418;28;20049;-66
2022/07/09 00:13:45;;;;;;;11.38;5.03;;;16.20;99.90;;;;;;4995645;28;20085;-65
2022/07/09 00:16:10;;;;;;;13.57;6.55;;;15.90;99.90;;;;;;5026519;28;20071;-65
2022/07/09 00:18:36;;;;;;;7.65;5.25;;;15.90;99.90;;;;;;5001194;28;20056;-66
2022/07/09 00:21:02;;;;;;;9.68;5.28;;;15.90;99.90;;;;;;4997524;28;20034;-66
2022/07/09 00:23:27;;;;;;;13.88;5.50;;;15.80;99.90;;;;;;5002104;28;20035;-66
2022/07/09 00:25:53;;;;;;;11.68;5.25;;;15.70;99.90;;;;;;4992847;28;20050;-66
2022/07/09 00:28:19;;;;;;;10.50;5.30;;;15.80;99.90;;;;;;5007768;28;20113;-65
2022/07/09 00:30:44;;;;;;;9.57;4.90;;;15.70;99.90;;;;;;5013467;28;20128;-65
2022/07/09 00:33:10;;;;;;;10.23;5.10;;;15.80;99.90;;;;;;4999065;28;20050;-65
2022/07/09 00:35:35;;;;;;;9.05;5.65;;;15.90;99.90;;;;;;4994048;28;20053;-66
2022/07/09 00:38:01;;;;;;;9.27;5.63;;;15.60;99.90;;;;;;4994222;28;20030;-66
2022/07/09 00:40:26;;;;;;;9.00;4.93;;;15.70;99.90;;;;;;5006918;28;20104;-66
2022/07/09 00:42:52;;;;;;;12.63;5.25;;;15.50;99.90;;;;;;4993905;28;20069;-66
2022/07/09 00:45:18;;;;;;;10.57;5.65;;;15.70;99.90;;;;;;5021465;28;20041;-65
2022/07/09 00:47:43;;;;;;;11.68;5.53;;;15.70;99.90;;;;;;5023690;28;20041;-66
2022/07/09 00:50:10;;;;;;;14.27;7.40;;;15.70;99.90;;;;;;5026926;28;20044;-66
2022/07/09 00:52:38;;;;;;;14.07;5.75;;;15.60;99.90;;;;;;4993612;28;20460;-66
2022/07/09 00:55:06;;;;;;;10.38;6.20;;;15.70;99.90;;;;;;4995256;28;20042;-66
2022/07/09 00:57:33;;;;;;;7.28;5.28;;;15.70;99.90;;;;;;5018793;28;20042;-65
2022/07/09 00:59:58;;;;;;;7.40;4.35;;;15.80;99.90;;;;;;4991931;28;20050;-65
2022/07/09 01:02:24;;;;;;;6.72;4.65;;;15.60;99.90;;;;;;5017628;28;20045;-66
2022/07/09 01:04:50;;;;;;;8.20;4.80;;;16.00;99.90;;;;;;5031396;28;20053;-66
2022/07/09 01:07:16;;;;;;;7.63;5.10;;;15.70;99.90;;;;;;4997094;28;20046;-66
2022/07/09 01:09:42;;;;;;;9.90;5.28;;;16.00;99.90;;;;;;5010599;28;20045;-66
2022/07/09 01:12:08;;;;;;;6.53;4.97;;;15.80;99.90;;;;;;5015783;28;20046;-65
2022/07/09 01:14:34;;;;;;;9.73;5.53;;;15.70;99.90;;;;;;5006354;28;20083;-65
2022/07/09 01:17:01;;;;;;;8.13;5.72;;;16.00;99.90;;;;;;5011642;28;20498;-65
2022/07/09 01:19:28;;;;;;;7.30;4.90;;;15.90;99.90;;;;;;5008826;28;20044;-65
2022/07/09 01:21:54;;;;;;;6.68;4.68;;;15.90;99.90;;;;;;4998741;28;20065;-65
2022/07/09 01:24:22;;;;;;;7.88;5.28;;;16.00;99.90;;;;;;5016295;28;20033;-66
2022/07/09 01:26:49;;;;;;;11.25;6.00;;;16.00;99.90;;;;;;5021201;28;20124;-65
2022/07/09 01:29:14;;;;;;;11.23;5.55;;;16.00;99.90;;;;;;5015240;28;20037;-65
2022/07/09 01:31:40;;;;;;;8.55;5.30;;;15.70;99.90;;;;;;5022151;28;20104;-66
2022/07/09 01:34:06;;;;;;;7.65;4.70;;;16.00;99.90;;;;;;5012562;28;20476;-65
2022/07/09 01:36:33;;;;;;;8.85;5.90;;;16.00;99.90;;;;;;5012652;28;20042;-66
2022/07/09 01:38:59;;;;;;;11.80;5.93;;;15.90;99.90;;;;;;5025772;28;20061;-65
2022/07/09 01:41:25;;;;;;;9.98;5.90;;;15.80;99.90;;;;;;5012799;28;20042;-66
2022/07/09 01:43:50;;;;;;;15.30;6.45;;;16.00;99.90;;;;;;5012305;28;20520;-65
2022/07/09 01:46:16;;;;;;;12.30;5.90;;;15.90;99.90;;;;;;5019735;28;20045;-66
2022/07/09 01:48:42;;;;;;;14.50;6.40;;;16.00;99.90;;;;;;5012426;28;20033;-66
2022/07/09 01:51:09;;;;;;;15.43;6.55;;;16.00;99.90;;;;;;5013121;28;20117;-65
2022/07/09 01:53:35;;;;;;;13.15;6.68;;;16.00;99.90;;;;;;5031201;28;20045;-65
2022/07/09 01:56:06;;;;;;;12.38;5.85;;;16.30;99.90;;;;;;5018024;28;20053;-65
2022/07/09 01:58:31;;;;;;;14.68;7.55;;;16.10;99.90;;;;;;5016399;28;20133;-66
2022/07/09 02:00:57;;;;;;;10.55;6.65;;;16.00;99.90;;;;;;5030867;28;20478;-65
2022/07/09 02:03:23;;;;;;;11.82;7.28;;;15.90;99.90;;;;;;5018419;28;20427;-66
2022/07/09 02:05:48;;;;;;;13.57;7.30;;;15.90;99.90;;;;;;5030911;28;20037;-66
2022/07/09 02:08:14;;;;;;;11.43;6.57;;;16.00;99.90;;;;;;5018112;28;20077;-65
2022/07/09 02:10:39;;;;;;;16.52;6.68;;;16.20;99.90;;;;;;5031935;28;20403;-65
2022/07/09 02:13:05;;;;;;;12.60;6.10;;;16.10;99.90;;;;;;5018138;28;20042;-65
2022/07/09 02:15:31;;;;;;;11.38;5.88;;;16.40;99.90;;;;;;5017615;28;20044;-66
2022/07/09 02:17:56;;;;;;;13.88;7.00;;;16.20;99.90;;;;;;5024393;28;20109;-66
2022/07/09 02:20:22;;;;;;;10.40;6.22;;;16.00;99.90;;;;;;5015916;28;20117;-66
2022/07/09 02:22:48;;;;;;;15.45;6.55;;;16.30;99.90;;;;;;5017116;28;20041;-65
2022/07/09 02:25:13;;;;;;;10.95;6.47;;;16.20;99.90;;;;;;5015703;28;20042;-65
2022/07/09 02:27:39;;;;;;;11.48;5.53;;;16.00;99.90;;;;;;5014339;28;20045;-65
2022/07/09 02:30:05;;;;;;;13.52;6.30;;;16.20;99.90;;;;;;5026995;28;20125;-65
2022/07/09 02:32:30;;;;;;;10.95;5.85;;;16.10;99.90;;;;;;5046264;28;20121;-66
2022/07/09 02:34:56;;;;;;;11.75;5.88;;;15.80;99.90;;;;;;5016104;28;20116;-66
2022/07/09 02:37:21;;;;;;;9.00;6.07;;;16.30;99.90;;;;;;5016689;28;20046;-66
2022/07/09 02:39:47;;;;;;;7.90;6.10;;;16.20;99.90;;;;;;5025616;28;20049;-65
2022/07/09 02:42:13;;;;;;;9.38;5.82;;;16.00;99.90;;;;;;5015390;28;20412;-65
2022/07/09 02:44:38;;;;;;;10.38;6.57;;;15.90;99.90;;;;;;5015389;28;20041;-65
2022/07/09 02:47:04;;;;;;;9.90;6.05;;;15.90;99.90;;;;;;5026510;28;20049;-66
2022/07/09 02:49:29;;;;;;;10.75;5.80;;;15.90;99.90;;;;;;5029629;28;20046;-66
2022/07/09 02:51:57;;;;;;;11.98;6.57;;;16.00;99.90;;;;;;5025701;28;20053;-65
2022/07/09 02:54:23;;;;;;;8.13;5.15;;;16.00;99.90;;;;;;5021209;28;20073;-65
2022/07/09 02:56:48;;;;;;;14.20;6.10;;;16.00;99.90;;;;;;5026593;28;20128;-66
2022/07/09 02:59:14;;;;;;;9.60;5.90;;;15.90;99.90;;;;;;5014467;28;20474;-65
2022/07/09 03:01:40;;;;;;;12.68;5.97;;;16.00;99.90;;;;;;5033848;28;20044;-65
2022/07/09 03:04:05;;;;;;;16.35;6.18;;;16.10;99.90;;;;;;5021331;28;20042;-66
2022/07/09 03:06:31;;;;;;;12.25;6.05;;;15.80;99.90;;;;;;5018308;28;20124;-65
2022/07/09 03:08:57;;;;;;;13.55;5.65;;;15.90;99.90;;;;;;5034667;28;20046;-66
2022/07/09 03:11:23;;;;;;;11.93;6.40;;;16.00;99.90;;;;;;5033751;28;20456;-65
2022/07/09 03:13:48;;;;;;;12.40;6.43;;;15.80;99.90;;;;;;5013696;28;20073;-65
2022/07/09 03:16:14;;;;;;;10.50;6.55;;;15.90;99.90;;;;;;5028794;28;20045;-66
2022/07/09 03:18:39;;;;;;;16.20;7.38;;;15.60;99.90;;;;;;5013605;28;20041;-66
2022/07/09 03:21:05;;;;;;;12.75;6.88;;;15.50;99.90;;;;;;5014922;28;20136;-65
2022/07/09 03:23:31;;;;;;;11.43;6.57;;;16.00;99.90;;;;;;5015334;28;20444;-65
2022/07/09 03:25:57;;;;;;;9.77;6.43;;;15.80;99.90;;;;;;5034800;28;20037;-65
2022/07/09 03:28:23;;;;;;;10.00;6.40;;;15.90;99.90;;;;;;5048504;28;20049;-65
2022/07/09 03:30:48;;;;;;;9.73;5.82;;;15.80;99.90;;;;;;5019262;28;20033;-66
2022/07/09 03:33:14;;;;;;;9.18;5.05;;;15.90;99.90;;;;;;5024128;28;20060;-66
2022/07/09 03:35:39;;;;;;;8.70;5.60;;;15.90;99.90;;;;;;5013299;28;20091;-65
2022/07/09 03:38:05;;;;;;;10.73;5.85;;;15.80;99.90;;;;;;5012724;28;20037;-66
2022/07/09 03:40:31;;;;;;;12.02;5.85;;;15.60;99.90;;;;;;5014415;28;20420;-65
2022/07/09 03:42:56;;;;;;;9.95;6.70;;;15.80;99.90;;;;;;5014662;28;20066;-65
2022/07/09 03:45:22;;;;;;;11.23;6.80;;;15.70;99.90;;;;;;5014686;28;20126;-65
2022/07/09 03:47:48;;;;;;;8.45;6.03;;;15.70;99.90;;;;;;5013018;28;20037;-66
2022/07/09 03:50:14;;;;;;;9.73;6.90;;;15.50;99.90;;;;;;5023678;28;20045;-66
2022/07/09 03:52:40;;;;;;;12.18;6.28;;;15.80;99.90;;;;;;5019879;28;20500;-66
2022/07/09 03:55:06;;;;;;;11.00;6.55;;;15.80;99.90;;;;;;5033920;28;20045;-66
2022/07/09 03:57:31;;;;;;;11.48;5.80;;;15.70;99.90;;;;;;5031986;28;20049;-65
2022/07/09 03:59:57;;;;;;;12.55;6.90;;;15.60;99.90;;;;;;5014107;28;20052;-65
2022/07/09 04:02:23;;;;;;;9.13;6.22;;;15.60;99.90;;;;;;5026552;28;20041;-66
2022/07/09 04:04:48;;;;;;;11.10;6.40;;;15.40;99.90;;;;;;5015649;28;20022;-65
2022/07/09 04:07:14;;;;;;;13.40;6.72;;;15.60;99.90;;;;;;5013872;28;20152;-65
2022/07/09 04:09:39;;;;;;;16.52;6.32;;;15.80;99.90;;;;;;5014010;28;20117;-66
2022/07/09 04:12:05;;;;;;;9.63;6.57;;;16.00;99.90;;;;;;4996635;28;20476;-65
2022/07/09 04:14:31;;;;;;;12.00;8.02;;;15.60;99.90;;;;;;5026854;28;20048;-66
2022/07/09 04:16:57;;;;;;;13.43;8.43;;;15.80;99.90;;;;;;5026093;28;20041;-66
2022/07/09 04:19:22;;;;;;;13.95;8.20;;;15.70;99.90;;;;;;5012490;28;20555;-66
2022/07/09 04:21:48;;;;;;;12.40;7.88;;;16.10;99.90;;;;;;5017594;28;20385;-65
2022/07/09 04:24:15;;;;;;;13.82;8.40;;;15.80;99.90;;;;;;5013949;28;20037;-65
2022/07/09 04:26:41;;;;;;;16.70;8.80;;;15.90;99.90;;;;;;5026112;28;20045;-66
2022/07/09 04:29:07;;;;;;;10.13;7.90;;;15.80;99.90;;;;;;5028505;28;20049;-66
2022/07/09 04:31:32;;;;;;;15.82;8.73;;;16.00;99.90;;;;;;5013799;28;20042;-66
2022/07/09 04:33:58;;;;;;;15.93;8.30;;;16.10;99.90;;;;;;5029923;28;20115;-65
2022/07/09 04:36:24;;;;;;;17.30;9.07;;;16.00;99.90;;;;;;5032940;28;20048;-65
2022/07/09 04:38:49;;;;;;;14.55;8.13;;;15.70;99.90;;;;;;5017288;28;20050;-65
2022/07/09 04:41:15;;;;;;;14.52;8.88;;;16.00;99.90;;;;;;5025430;28;20045;-66
2022/07/09 04:43:40;;;;;;;13.70;8.43;;;16.00;99.90;;;;;;5013235;28;20038;-65
2022/07/09 04:46:06;;;;;;;12.05;8.02;;;16.40;99.90;;;;;;5013299;28;20033;-65
2022/07/09 04:48:31;;;;;;;13.40;8.68;;;16.00;99.90;;;;;;5022313;28;20077;-66
2022/07/09 04:50:57;;;;;;;15.13;8.27;;;16.20;99.90;;;;;;5030456;28;20414;-65
2022/07/09 04:53:22;;;;;;;13.32;8.38;;;15.90;99.90;;;;;;5020334;28;20037;-65
2022/07/09 04:55:48;;;;;;;12.30;8.82;;;16.20;99.90;;;;;;5032741;28;20121;-65
2022/07/09 04:58:13;;;;;;;17.55;9.60;;;16.10;99.90;;;;;;5031320;28;20161;-66
2022/07/09 05:00:39;;;;;;;14.32;7.85;;;16.00;99.90;;;;;;5020683;28;20492;-65
2022/07/09 05:03:05;;;;;;;14.60;8.60;;;15.90;99.90;;;;;;5011911;28;20048;-66
2022/07/09 05:05:30;;;;;;;14.40;9.18;;;16.30;99.90;;;;;;5011774;28;20499;-65
2022/07/09 05:07:56;;;;;;;17.02;8.05;;;16.30;99.90;;;;;;5012756;28;20049;-66
2022/07/09 05:10:21;;;;;;;12.77;7.65;;;16.20;99.90;;;;;;5011738;28;20483;-65
2022/07/09 05:12:47;;;;;;;19.33;7.95;;;16.10;99.90;;;;;;5012885;28;20042;-65
2022/07/09 05:15:13;;;;;;;16.13;8.32;;;16.20;99.90;;;;;;5031918;28;20056;-66
2022/07/09 05:17:40;;;;;;;17.13;8.07;;;16.40;99.90;;;;;;5032576;28;20053;-66
2022/07/09 05:20:08;;;;;;;19.58;10.20;;;16.30;99.90;;;;;;5014357;28;20468;-66
2022/07/09 05:22:35;;;;;;;15.23;8.63;;;16.40;99.90;;;;;;5011550;28;20045;-65
2022/07/09 05:25:01;;;;;;;15.50;8.48;;;16.40;99.90;;;;;;5025594;28;20102;-66
2022/07/09 05:27:28;;;;;;;16.42;9.13;;;16.40;99.90;;;;;;5032089;28;20041;-65
2022/07/09 05:29:53;;;;;;;14.60;7.63;;;16.70;99.90;;;;;;5021856;28;20034;-66
2022/07/09 05:32:19;;;;;;;14.90;7.53;;;16.50;99.90;;;;;;5029422;28;20090;-66
2022/07/09 05:34:45;;;;;;;12.38;7.30;;;16.60;99.90;;;;;;5022291;28;20034;-65
2022/07/09 05:37:10;;;;;;;14.02;8.00;;;16.40;99.90;;;;;;5012209;28;20442;-65
2022/07/09 05:39:36;;;;;;;11.23;7.22;;;16.70;99.90;;;;;;5012497;28;20049;-65
2022/07/09 05:42:01;;;;;;;11.90;7.53;;;17.10;99.90;;;;;;5012563;28;20164;-65
2022/07/09 05:44:27;;;;;;;11.98;6.30;;;16.70;99.90;;;;;;5031358;28;20044;-66
2022/07/09 05:46:52;;;;;;;15.13;7.57;;;16.90;99.90;;;;;;5016606;28;20050;-66
2022/07/09 05:49:18;;;;;;;16.50;7.97;;;16.90;99.90;;;;;;5026363;28;20496;-65
2022/07/09 05:51:44;;;;;;;16.58;7.40;;;17.00;99.90;;;;;;5024375;28;20041;-66
2022/07/09 05:54:09;;;;;;;12.50;6.32;;;17.00;99.90;;;;;;5021030;28;20477;-65
2022/07/09 05:56:36;;;;;;;11.27;7.15;;;17.10;99.90;;;;;;5034933;28;20423;-65
2022/07/09 05:59:05;;;;;;;12.18;5.93;;;17.00;99.90;;;;;;5023540;28;20050;-66
2022/07/09 06:01:31;;;;;;;12.43;6.75;;;17.00;99.90;;;;;;5015234;28;20038;-65
2022/07/09 06:03:56;;;;;;;12.27;6.13;;;17.00;99.90;;;;;;5026227;28;20048;-65
2022/07/09 06:06:22;;;;;;;15.55;6.78;;;17.20;99.90;;;;;;5019227;28;20092;-65
2022/07/09 06:08:47;;;;;;;11.57;6.35;;;17.00;99.90;;;;;;5025505;28;20514;-66
2022/07/09 06:11:13;;;;;;;10.23;6.00;;;17.10;99.90;;;;;;5034585;28;20121;-65
2022/07/09 06:13:39;;;;;;;10.55;5.95;;;17.30;99.90;;;;;;5016082;28;20072;-66
2022/07/09 06:16:05;;;;;;;10.35;5.90;;;17.20;99.90;;;;;;5029279;28;20042;-66
2022/07/09 06:18:31;;;;;;;12.10;5.13;;;17.30;99.90;;;;;;5016346;28;20049;-66
2022/07/09 06:20:57;;;;;;;9.43;5.43;;;17.10;99.90;;;;;;5016210;28;20080;-65
2022/07/09 06:23:23;;;;;;;9.43;5.07;;;17.30;99.90;;;;;;5018788;28;20050;-66
2022/07/09 06:25:48;;;;;;;11.23;5.43;;;17.40;99.90;;;;;;5016061;28;20045;-66
2022/07/09 06:28:14;;;;;;;11.63;5.20;;;17.40;99.90;;;;;;5014640;28;20042;-65
2022/07/09 06:30:39;;;;;;;7.80;4.65;;;17.30;99.90;;;;;;5018041;28;20037;-65
2022/07/09 06:33:05;;;;;;;10.90;4.15;;;17.50;99.90;;;;;;5034043;28;20041;-65
2022/07/09 06:35:31;;;;;;;9.15;4.57;;;17.20;99.90;;;;;;5019252;28;20049;-65
2022/07/09 06:37:57;;;;;;;10.45;5.13;;;17.30;99.90;;;;;;5022948;28;20037;-66
2022/07/09 06:40:23;;;;;;;9.63;4.00;;;17.50;99.90;;;;;;5035441;28;20064;-66
2022/07/09 06:42:48;;;;;;;7.38;3.80;;;17.50;99.90;;;;;;5014735;28;20048;-66
2022/07/09 06:45:14;;;;;;;8.88;4.13;;;17.30;99.90;;;;;;5040777;28;20103;-65
2022/07/09 06:47:40;;;;;;;7.25;4.13;;;17.50;99.90;;;;;;5014015;28;20471;-65
2022/07/09 06:50:06;;;;;;;6.82;3.70;;;17.70;99.90;;;;;;5015558;28;20077;-65
2022/07/09 06:52:32;;;;;;;5.22;3.67;;;17.70;99.90;;;;;;5015574;28;20447;-65
2022/07/09 06:54:58;;;;;;;8.55;3.90;;;17.50;99.90;;;;;;5015520;28;20034;-66
2022/07/09 06:57:23;;;;;;;9.50;3.60;;;17.70;99.90;;;;;;5014142;28;20135;-65
2022/07/09 06:59:49;;;;;;;8.27;3.72;;;17.70;99.90;;;;;;5033218;28;20511;-66
2022/07/09 07:02:17;;;;;;;5.75;3.65;;;17.70;99.90;;;;;;5033298;28;20045;-65
2022/07/09 07:04:43;;;;;;;9.40;3.22;;;17.90;99.90;;;;;;5017538;28;20044;-65
2022/07/09 07:07:08;;;;;;;7.63;4.28;;;18.00;99.90;;;;;;5015177;28;20396;-66
2022/07/09 07:09:34;;;;;;;7.22;3.10;;;17.90;99.90;;;;;;5027736;28;20049;-65
2022/07/09 07:11:59;;;;;;;7.25;3.17;;;17.80;99.90;;;;;;5015244;28;20066;-65
2022/07/09 07:14:25;;;;;;;5.57;2.78;;;18.10;99.90;;;;;;5014913;28;20496;-65
2022/07/09 07:16:52;;;;;;;11.38;4.00;;;17.90;99.90;;;;;;5034304;28;20427;-65
2022/07/09 07:19:20;;;;;;;7.03;2.40;;;18.00;99.90;;;;;;5034840;28;20116;-65
2022/07/09 07:21:46;;;;;;;5.40;2.65;;;18.10;99.90;;;;;;5016471;28;20077;-65
2022/07/09 07:24:13;;;;;;;6.40;2.72;;;18.20;99.90;;;;;;5014041;28;20415;-66
2022/07/09 07:26:38;;;;;;;5.82;2.58;;;18.00;99.90;;;;;;5013486;28;20052;-65
2022/07/09 07:29:04;;;;;;;5.25;2.47;;;18.30;99.90;;;;;;5031361;28;20041;-65
2022/07/09 07:31:30;;;;;;;5.07;3.20;;;18.20;99.90;;;;;;5024237;28;20034;-66
2022/07/09 07:33:55;;;;;;;10.05;2.70;;;18.10;99.90;;;;;;5028545;28;20044;-66
2022/07/09 07:36:21;;;;;;;9.35;2.10;;;17.90;99.90;;;;;;5022818;28;20038;-66
2022/07/09 07:38:46;;;;;;;3.58;2.70;;;18.10;99.90;;;;;;5020260;28;20596;-65
2022/07/09 07:41:13;;;;;;;7.80;2.70;;;18.20;99.90;;;;;;5021096;28;20112;-65
2022/07/09 07:43:39;;;;;;;8.30;2.47;;;18.00;99.90;;;;;;5020832;28;20125;-66
2022/07/09 07:46:04;;;;;;;6.63;2.92;;;18.20;99.90;;;;;;5012762;28;20056;-65
2022/07/09 07:48:30;;;;;;;9.18;2.53;;;18.20;99.90;;;;;;5014257;28;20124;-66
2022/07/09 07:50:56;;;;;;;8.30;2.58;;;18.00;99.90;;;;;;5014572;28;20096;-65
2022/07/09 07:53:22;;;;;;;4.97;2.20;;;18.20;99.90;;;;;;5014663;28;20550;-66
2022/07/09 07:55:48;;;;;;;8.80;3.58;;;18.20;99.90;;;;;;5014277;28;20041;-65
2022/07/09 07:58:13;;;;;;;4.65;2.03;;;18.10;99.90;;;;;;5013966;28;20445;-65
2022/07/09 08:00:39;;;;;;;4.97;2.28;;;18.20;99.90;;;;;;5014029;28;20042;-65
2022/07/09 08:03:04;;;;;;;7.60;2.35;;;18.20;99.90;;;;;;5012701;28;20033;-65
2022/07/09 08:05:30;;;;;;;4.57;1.95;;;18.40;99.90;;;;;;5014236;28;20037;-66
2022/07/09 08:07:56;;;;;;;5.20;2.47;;;18.40;99.90;;;;;;5016015;28;20113;-66
2022/07/09 08:10:21;;;;;;;5.18;2.30;;;18.50;99.90;;;;;;5033894;28;20038;-66
2022/07/09 08:12:47;;;;;;;4.47;2.28;;;18.60;99.90;;;;;;5033253;28;20041;-65
2022/07/09 08:15:12;;;;;;;4.97;2.35;;;18.80;99.90;;;;;;5027603;28;20034;-65
2022/07/09 08:17:38;;;;;;;4.95;2.33;;;18.80;99.90;;;;;;5025991;28;20053;-66
2022/07/09 08:20:05;;;;;;;5.22;2.05;;;18.60;99.90;;;;;;5015876;28;20048;-66
2022/07/09 08:22:30;;;;;;;7.75;2.15;;;19.10;99.90;;;;;;5012654;28;20173;-66
2022/07/09 08:24:56;;;;;;;6.05;1.83;;;18.80;99.90;;;;;;5012821;28;20480;-66
2022/07/09 08:27:22;;;;;;;6.85;2.20;;;19.00;99.90;;;;;;5027394;28;20037;-66
2022/07/09 08:29:50;;;;;;;4.97;1.85;;;19.20;99.90;;;;;;5012598;28;20041;-65
2022/07/09 08:32:16;;;;;;;5.43;2.42;;;18.90;99.90;;;;;;5013507;28;20080;-66
2022/07/09 08:34:42;;;;;;;5.95;2.50;;;19.20;99.90;;;;;;5013654;28;20070;-66
2022/07/09 08:37:07;;;;;;;6.60;2.05;;;19.40;99.90;;;;;;5012873;28;20046;-66
2022/07/09 08:39:33;;;;;;;6.53;1.80;;;19.60;99.90;;;;;;5026745;28;20061;-66
2022/07/09 08:41:59;;;;;;;6.50;1.83;;;19.60;99.90;;;;;;5012115;28;20057;-66
2022/07/09 08:44:30;;;;;;;6.65;1.50;;;19.60;99.90;;;;;;5017627;28;20495;-65
2022/07/09 08:47:00;;;;;;;3.97;1.50;;;19.70;99.90;;;;;;5016017;28;20038;-66
2022/07/09 08:49:27;;;;;;;2.78;1.50;;;19.50;99.90;;;;;;5026090;28;20068;-66
2022/07/09 08:51:55;;;;;;;4.03;2.33;;;19.60;99.90;;;;;;5022269;28;20038;-66
2022/07/09 08:54:21;;;;;;;3.20;1.30;;;19.90;99.90;;;;;;5015475;28;20081;-66
2022/07/09 08:56:46;;;;;;;4.00;1.30;;;19.90;99.90;;;;;;5020927;28;20091;-66
2022/07/09 08:59:12;;;;;;;3.65;1.20;;;20.10;99.90;;;;;;5017155;28;20038;-65
2022/07/09 09:01:38;;;;;;;5.95;1.35;;;20.40;99.90;;;;;;5019537;28;20041;-65
2022/07/09 09:04:04;;;;;;;5.18;1.00;;;19.90;99.90;;;;;;5036001;28;20068;-66
2022/07/09 09:06:36;;;;;;;5.38;1.15;;;20.20;99.90;;;;;;5012059;28;20037;-66
2022/07/09 09:09:02;;;;;;;3.28;1.20;;;20.00;99.90;;;;;;5012826;28;20038;-66
2022/07/09 09:11:28;;;;;;;7.93;1.48;;;20.40;99.90;;;;;;5012872;28;20025;-66
2022/07/09 09:13:54;;;;;;;3.70;0.80;;;20.10;99.90;;;;;;5011685;28;20113;-66
2022/07/09 09:16:22;;;;;;;3.00;1.00;;;20.40;99.90;;;;;;5013045;28;20034;-66
2022/07/09 09:18:49;;;;;;;6.50;0.90;;;20.50;99.90;;;;;;5013112;28;20038;-66
2022/07/09 09:21:18;;;;;;;3.95;1.00;;;20.30;99.90;;;;;;5011516;28;20411;-66
2022/07/09 09:23:55;;;;;;;4.45;1.00;;;18.30;99.90;;;;;;5009244;28;20069;-66
2022/07/09 09:26:25;;;;;;;4.18;0.98;;;20.40;99.90;;;;;;5021117;28;20053;-65
2022/07/09 09:28:52;;;;;;;6.78;2.42;;;20.40;99.90;;;;;;5014813;28;20073;-66
2022/07/09 09:31:21;;;;;;;5.57;1.15;;;20.50;99.90;;;;;;5012778;28;20037;-66
2022/07/09 09:33:46;;;;;;;6.63;1.63;;;20.60;99.90;;;;;;5025197;28;20107;-66
2022/07/09 09:36:26;;;;;;;6.22;1.05;;;20.50;99.90;;;;;;5018332;28;20100;-65
2022/07/09 09:38:51;;;;;;;5.60;1.05;;;20.60;99.90;;;;;;5031328;28;20049;-66
2022/07/09 09:41:22;;;;;;;4.88;1.02;;;20.30;99.90;;;;;;5017984;28;20515;-66
2022/07/09 09:43:50;;;;;;;9.50;1.30;;;20.50;99.90;;;;;;5017869;28;20113;-66
2022/07/09 09:46:16;;;;;;;4.25;0.93;;;20.50;99.90;;;;;;5029686;28;20068;-66
2022/07/09 09:48:43;;;;;;;3.40;0.68;;;20.50;99.90;;;;;;5020709;28;20100;-66
2022/07/09 09:51:13;;;;;;;3.63;0.60;;;20.50;99.90;;;;;;5012541;28;20073;-65
2022/07/09 09:53:40;;;;;;;7.40;1.02;;;20.30;99.90;;;;;;5023288;28;20049;-66
2022/07/09 09:56:06;;;;;;;4.40;1.77;;;20.40;99.90;;;;;;5015774;28;20038;-66
2022/07/09 09:58:32;;;;;;;6.03;1.17;;;20.40;99.90;;;;;;5012484;28;20057;-66
2022/07/09 10:00:58;;;;;;;3.88;0.95;;;20.30;99.90;;;;;;5010972;28;20048;-65
2022/07/09 10:03:25;;;;;;;4.90;1.20;;;20.50;99.90;;;;;;5010982;28;20128;-65
2022/07/09 10:05:51;;;;;;;3.92;0.95;;;20.50;99.90;;;;;;5012233;28;20116;-66
2022/07/09 10:08:16;;;;;;;3.40;1.05;;;20.60;99.90;;;;;;5012130;28;20085;-66
2022/07/09 10:10:51;;;;;;;4.30;1.00;;;20.50;99.90;;;;;;5012669;28;20084;-66
2022/07/09 10:13:23;;;;;;;3.28;0.65;;;20.80;99.90;;;;;;5030453;28;20045;-66
2022/07/09 10:15:49;;;;;;;4.90;0.80;;;20.60;99.90;;;;;;5021284;28;20046;-66
2022/07/09 10:18:18;;;;;;;7.32;1.35;;;20.60;99.90;;;;;;5014665;28;20053;-66
2022/07/09 10:20:44;;;;;;;6.70;1.35;;;20.60;99.90;;;;;;5022639;28;20562;-66
2022/07/09 10:23:21;;;;;;;4.47;0.73;;;20.50;99.90;;;;;;5012297;28;20456;-66
2022/07/09 10:25:47;;;;;;;3.40;0.90;;;20.70;99.90;;;;;;5026207;28;20034;-66
2022/07/09 10:28:20;;;;;;;5.93;0.95;;;20.60;99.90;;;;;;5010763;28;20069;-66
2022/07/09 10:30:47;;;;;;;3.17;1.10;;;20.80;99.90;;;;;;5014735;28;20053;-66
2022/07/09 10:33:20;;;;;;;6.82;1.10;;;21.00;99.90;;;;;;5032040;28;20037;-66
2022/07/09 10:35:48;;;;;;;7.63;1.30;;;20.90;99.90;;;;;;5014679;28;20427;-66
2022/07/09 10:38:15;;;;;;;3.13;0.93;;;20.90;99.90;;;;;;5015594;28;20034;-66
2022/07/09 10:40:42;;;;;;;5.07;0.80;;;20.80;99.90;;;;;;5015694;28;20046;-66
2022/07/09 10:43:08;;;;;;;4.03;0.95;;;20.90;99.90;;;;;;5014051;28;20064;-65
2022/07/09 10:45:38;;;;;;;7.63;1.35;;;20.70;99.90;;;;;;5009429;28;20124;-66
2022/07/09 10:48:06;;;;;;;4.30;1.13;;;20.70;99.90;;;;;;5002563;28;20045;-66
2022/07/09 10:50:35;;;;;;;2.25;0.70;;;20.60;99.90;;;;;;5028714;28;20164;-66
2022/07/09 10:53:01;;;;;;;2.80;0.60;;;20.80;99.90;;;;;;5014770;28;20029;-66
2022/07/09 10:55:27;;;;;;;6.03;1.70;;;21.00;99.90;;;;;;5014228;28;20042;-66
2022/07/09 10:57:54;;;;;;;6.32;1.27;;;20.90;99.90;;;;;;5014900;28;20047;-65
2022/07/09 11:00:22;;;;;;;9.48;1.25;;;21.10;99.90;;;;;;5025113;28;20049;-66
2022/07/09 11:02:57;;;;;;;6.85;1.30;;;21.10;99.90;;;;;;5017973;28;20042;-66
2022/07/09 11:05:27;;;;;;;9.68;1.20;;;21.20;99.90;;;;;;5023303;28;20048;-66
2022/07/09 11:07:58;;;;;;;8.57;1.58;;;21.20;99.90;;;;;;5033118;28;20073;-66
2022/07/09 11:10:24;;;;;;;6.32;1.10;;;21.10;99.90;;;;;;5014937;28;20046;-66
2022/07/09 11:12:50;;;;;;;8.90;2.03;;;21.00;99.90;;;;;;5014971;28;20153;-66
2022/07/09 11:15:20;;;;;;;10.60;1.33;;;20.70;99.90;;;;;;5014340;28;20141;-66
2022/07/09 11:17:56;;;;;;;8.82;1.83;;;20.70;99.90;;;;;;5026813;28;20041;-66
2022/07/09 11:20:21;;;;;;;7.20;1.25;;;20.60;99.90;;;;;;5027116;28;20057;-66
2022/07/09 11:22:48;;;;;;;6.35;1.83;;;20.60;99.90;;;;;;5013397;28;20424;-66
2022/07/09 11:25:15;;;;;;;6.80;1.75;;;20.80;99.90;;;;;;5019282;28;20077;-66
2022/07/09 11:27:41;;;;;;;5.68;1.50;;;20.70;99.90;;;;;;5026664;28;20046;-66
2022/07/09 11:30:11;;;;;;;8.10;1.73;;;20.50;99.90;;;;;;5015079;28;20034;-66
2022/07/09 11:32:36;;;;;;;9.95;1.55;;;20.50;99.90;;;;;;5020186;28;20422;-66
2022/07/09 11:35:02;;;;;;;6.88;1.30;;;20.20;99.90;;;;;;5023212;28;20121;-66
2022/07/09 11:37:28;;;;;;;8.82;1.25;;;20.50;99.90;;;;;;5013147;28;20026;-66
2022/07/09 11:39:53;;;;;;;10.02;1.58;;;20.20;99.90;;;;;;5014229;28;20058;-66
2022/07/09 11:42:20;;;;;;;11.20;1.77;;;20.00;99.90;;;;;;5027128;28;20050;-65
2022/07/09 11:44:59;;;;;;;8.05;1.60;;;20.40;99.90;;;;;;5022157;28;20454;-66
2022/07/09 11:47:39;;;;;;;6.47;1.50;;;20.90;99.90;;;;;;5016052;28;20046;-65
2022/07/09 11:50:13;;;;;;;8.90;1.25;;;20.50;99.90;;;;;;5013885;28;20088;-66
2022/07/09 11:52:46;;;;;;;13.85;1.10;;;20.60;99.90;;;;;;5015263;28;20052;-66
2022/07/09 11:55:14;;;;;;;7.60;1.45;;;20.50;99.90;;;;;;5034348;28;20060;-66
2022/07/09 11:57:51;;;;;;;3.63;1.00;;;20.30;99.90;;;;;;5018515;28;20041;-66
2022/07/09 12:00:27;;;;;;;8.20;1.35;;;20.40;99.90;;;;;;5012483;28;20092;-65
2022/07/09 12:02:55;;;;;;;9.07;1.05;;;20.40;99.90;;;;;;5027844;28;20055;-66
2022/07/09 12:05:39;;;;;;;14.38;1.58;;;20.60;99.90;;;;;;5022739;28;20492;-66
2022/07/09 12:08:06;;;;;;;4.07;0.93;;;20.70;99.90;;;;;;5031647;28;20085;-65
2022/07/09 12:10:37;;;;;;;5.40;0.63;;;21.60;99.90;;;;;;5023453;28;20045;-66
2022/07/09 12:13:04;;;;;;;4.13;0.60;;;20.50;99.90;;;;;;5018594;28;20204;-65
2022/07/09 12:15:30;;;;;;;6.03;1.05;;;20.50;99.90;;;;;;5032687;28;20061;-64
2022/07/09 12:18:00;;;;;;;4.45;0.45;;;20.60;99.90;;;;;;5032149;28;20124;-64
2022/07/09 12:20:31;;;;;;;7.40;1.60;;;20.40;99.90;;;;;;5025647;28;20049;-64
2022/07/09 12:22:57;;;;;;;3.55;0.52;;;20.60;99.90;;;;;;5013792;28;20407;-65
2022/07/09 12:25:23;;;;;;;5.93;1.23;;;20.40;99.90;;;;;;4999315;28;20112;-64
2022/07/09 12:27:49;;;;;;;2.75;0.50;;;20.50;99.90;;;;;;5012018;28;20508;-65
2022/07/09 12:30:15;;;;;;;5.32;0.80;;;20.40;99.90;;;;;;5012143;28;20103;-64
2022/07/09 12:32:40;;;;;;;4.10;0.70;;;20.50;99.90;;;;;;5013265;28;20530;-64
2022/07/09 12:35:07;;;;;;;4.63;0.68;;;20.50;99.90;;;;;;5013501;28;20034;-63
2022/07/09 12:37:34;;;;;;;3.80;0.68;;;20.50;99.90;;;;;;4995930;28;20602;-63
2022/07/09 12:40:00;;;;;;;4.70;0.60;;;20.50;99.90;;;;;;5011816;28;20065;-64